Time;durP1;ratioP1;P1;durP2;ratioP2;P2;SDS_P1;SDS_P2;PMS_P1;PMS_P2;Temp;Humidity;BMP_temperature;BMP_pressure;BME280_temperature;BME280_humidity;BME280_pressure;Samples;Min_cycle;Max_cycle;Signal;HPM_P1;HPM_P2
2023/08/23 00:01:15;;;;;;;5.37;3.23;;;26.00;94.40;;;;;;5042288;28;20181;-85
2023/08/23 00:03:41;;;;;;;5.60;3.40;;;26.00;94.40;;;;;;5038737;28;20242;-85
2023/08/23 00:06:07;;;;;;;9.20;3.10;;;26.00;94.40;;;;;;5038955;28;20181;-85
2023/08/23 00:08:33;;;;;;;4.90;3.10;;;26.00;94.50;;;;;;5039945;28;20188;-85
2023/08/23 00:10:58;;;;;;;4.43;3.03;;;26.00;94.40;;;;;;5022937;28;20241;-85
2023/08/23 00:15:59;;;;;;;4.37;2.43;;;25.90;94.40;;;;;;774216;22;20485;31
2023/08/23 00:18:25;;;;;;;5.30;3.10;;;25.90;94.40;;;;;;5071174;28;20223;-77
2023/08/23 00:20:51;;;;;;;4.07;2.63;;;25.90;94.40;;;;;;5072843;28;20179;-76
2023/08/23 00:23:16;;;;;;;3.83;2.50;;;25.90;94.40;;;;;;5075748;28;20263;-77
2023/08/23 00:25:42;;;;;;;4.17;2.60;;;25.80;94.30;;;;;;5074984;28;20225;-77
2023/08/23 00:28:08;;;;;;;8.23;2.60;;;25.90;94.40;;;;;;5076766;28;20171;-76
2023/08/23 00:30:34;;;;;;;4.40;2.50;;;25.90;94.30;;;;;;5076349;28;20211;-77
2023/08/23 00:33:01;;;;;;;4.57;2.73;;;25.90;94.30;;;;;;5076143;28;20203;-77
2023/08/23 00:35:27;;;;;;;3.90;2.53;;;25.90;94.30;;;;;;5074678;28;20183;-77
2023/08/23 00:37:52;;;;;;;4.47;2.43;;;25.80;94.30;;;;;;5076208;28;20183;-77
2023/08/23 00:40:20;;;;;;;3.43;2.43;;;25.80;94.30;;;;;;5076435;28;20176;-77
2023/08/23 00:42:46;;;;;;;3.93;2.33;;;25.70;94.30;;;;;;5077923;28;20456;-77
2023/08/23 00:45:12;;;;;;;3.33;2.30;;;25.80;94.20;;;;;;5075664;28;20179;-77
2023/08/23 00:47:38;;;;;;;5.53;2.60;;;25.80;94.20;;;;;;5076522;28;20180;-77
2023/08/23 00:50:04;;;;;;;3.83;2.50;;;25.80;94.50;;;;;;5076154;28;20211;-77
2023/08/23 00:52:29;;;;;;;3.50;2.20;;;25.70;94.30;;;;;;5076657;28;20172;-77
2023/08/23 00:54:57;;;;;;;3.20;2.40;;;25.70;94.60;;;;;;5075698;28;20433;-77
2023/08/23 00:57:25;;;;;;;3.83;2.53;;;25.70;94.30;;;;;;5045463;28;20215;-77
2023/08/23 00:59:50;;;;;;;2.70;2.00;;;25.70;94.30;;;;;;5069711;28;20179;-77
2023/08/23 01:02:16;;;;;;;2.67;1.83;;;25.70;94.30;;;;;;5070977;28;20559;-77
2023/08/23 01:04:42;;;;;;;4.07;2.03;;;25.70;94.20;;;;;;5074163;28;20248;-77
2023/08/23 01:07:14;;;;;;;2.70;2.00;;;25.70;94.20;;;;;;5072746;28;20423;-76
2023/08/23 01:10:08;;;;;;;3.90;2.00;;;25.60;94.20;;;;;;5071973;28;20497;-77
2023/08/23 01:12:43;;;;;;;3.23;2.30;;;25.70;94.20;;;;;;5060593;28;20270;-76
2023/08/23 01:15:11;;;;;;;2.27;1.80;;;25.70;94.20;;;;;;5073385;28;20252;-76
2023/08/23 01:17:42;;;;;;;2.63;2.00;;;25.60;94.20;;;;;;5072327;28;20509;-77
2023/08/23 01:20:16;;;;;;;2.23;1.90;;;25.60;94.20;;;;;;5074045;28;20256;-77
2023/08/23 01:22:54;;;;;;;3.67;2.13;;;25.60;94.20;;;;;;5074085;28;20233;-77
2023/08/23 01:25:20;;;;;;;1.93;1.73;;;25.60;94.10;;;;;;5074676;28;20184;-77
2023/08/23 01:27:46;;;;;;;3.33;2.10;;;25.60;94.20;;;;;;5074427;28;20620;-77
2023/08/23 01:30:16;;;;;;;1.80;1.70;;;25.60;94.10;;;;;;5073782;28;20492;-77
2023/08/23 01:32:58;;;;;;;2.37;1.70;;;25.60;94.20;;;;;;5072284;28;20281;-77
2023/08/23 01:35:53;;;;;;;2.73;1.73;;;25.60;94.10;;;;;;5073670;28;20183;-77
2023/08/23 01:38:21;;;;;;;3.53;1.77;;;25.60;94.10;;;;;;5072255;28;20425;-77
2023/08/23 01:40:47;;;;;;;3.27;2.00;;;25.60;94.10;;;;;;5069247;28;20176;-77
2023/08/23 01:43:12;;;;;;;2.67;2.00;;;25.50;94.00;;;;;;5070930;28;20275;-77
2023/08/23 01:45:38;;;;;;;3.03;2.00;;;25.60;94.10;;;;;;5072996;28;20268;-77
2023/08/23 01:48:04;;;;;;;3.20;1.70;;;25.50;94.00;;;;;;5073319;28;20187;-77
2023/08/23 01:50:30;;;;;;;1.67;1.57;;;25.50;94.00;;;;;;5073249;28;20211;-77
2023/08/23 01:52:55;;;;;;;4.70;2.03;;;25.50;94.00;;;;;;5072206;28;20182;-77
2023/08/23 01:55:21;;;;;;;2.97;1.60;;;25.50;94.00;;;;;;5073312;28;20179;-77
2023/08/23 01:57:47;;;;;;;2.33;1.73;;;25.50;94.00;;;;;;5072755;28;20287;-77
2023/08/23 02:00:13;;;;;;;2.83;2.10;;;25.50;94.10;;;;;;5073311;28;20200;-77
2023/08/23 02:02:39;;;;;;;1.70;1.60;;;25.50;94.00;;;;;;5072981;28;20545;-77
2023/08/23 02:05:05;;;;;;;2.20;2.00;;;25.40;94.00;;;;;;5073220;28;20182;-76
2023/08/23 02:07:30;;;;;;;1.70;1.60;;;25.40;94.00;;;;;;5072806;28;20176;-77
2023/08/23 02:09:56;;;;;;;2.53;1.70;;;25.40;94.00;;;;;;5073597;28;20206;-77
2023/08/23 02:12:22;;;;;;;2.13;1.77;;;25.40;94.00;;;;;;5073183;28;20182;-77
2023/08/23 02:14:47;;;;;;;2.67;1.70;;;25.40;94.00;;;;;;5072457;28;20182;-77
2023/08/23 02:17:13;;;;;;;2.17;1.77;;;25.40;93.90;;;;;;5073045;28;20376;-77
2023/08/23 02:19:39;;;;;;;2.63;1.70;;;25.40;93.90;;;;;;5073337;28;20207;-77
2023/08/23 02:22:05;;;;;;;2.63;1.80;;;25.40;93.90;;;;;;5072984;28;20326;-77
2023/08/23 02:24:31;;;;;;;2.63;1.73;;;25.40;93.90;;;;;;5073477;28;20187;-77
2023/08/23 02:26:56;;;;;;;1.70;1.40;;;25.40;93.90;;;;;;5073771;28;20180;-77
2023/08/23 02:29:22;;;;;;;2.77;1.80;;;25.40;93.90;;;;;;5074115;28;20256;-77
2023/08/23 02:31:48;;;;;;;1.87;1.73;;;25.30;93.90;;;;;;5075107;28;20187;-77
2023/08/23 02:34:13;;;;;;;1.63;1.53;;;25.30;93.90;;;;;;5073209;28;20681;-77
2023/08/23 02:36:39;;;;;;;2.97;1.53;;;25.30;93.90;;;;;;5074469;28;20291;-77
2023/08/23 02:39:06;;;;;;;2.10;1.53;;;25.30;93.90;;;;;;5074271;28;20175;-77
2023/08/23 02:41:32;;;;;;;2.30;1.70;;;25.30;93.80;;;;;;5074358;28;20184;-77
2023/08/23 02:43:57;;;;;;;2.57;1.50;;;25.30;93.80;;;;;;5074535;28;20315;-77
2023/08/23 02:46:23;;;;;;;2.30;1.60;;;25.20;93.80;;;;;;5074077;28;20214;-77
2023/08/23 02:48:49;;;;;;;2.60;1.60;;;25.20;93.90;;;;;;5075159;28;20187;-77
2023/08/23 02:51:14;;;;;;;1.70;1.47;;;25.20;93.80;;;;;;5074756;28;20176;-77
2023/08/23 02:53:40;;;;;;;2.50;1.70;;;25.30;93.90;;;;;;5073889;28;20596;-77
2023/08/23 02:56:06;;;;;;;3.07;1.73;;;25.20;93.80;;;;;;5074238;28;20164;-77
2023/08/23 02:58:32;;;;;;;1.97;1.60;;;25.20;93.80;;;;;;5072040;28;20175;-77
2023/08/23 03:00:58;;;;;;;1.77;1.47;;;25.20;93.80;;;;;;5073035;28;20179;-77
2023/08/23 03:03:24;;;;;;;2.37;1.53;;;25.20;93.80;;;;;;5073734;28;20190;-77
2023/08/23 03:05:55;;;;;;;1.80;1.70;;;25.20;93.80;;;;;;5072945;28;20190;-77
2023/08/23 03:08:24;;;;;;;2.23;1.40;;;25.20;93.80;;;;;;5072739;28;20637;-77
2023/08/23 03:10:50;;;;;;;2.80;1.77;;;25.20;93.80;;;;;;5072940;28;20410;-77
2023/08/23 03:13:16;;;;;;;2.43;1.70;;;25.20;93.90;;;;;;5072664;28;20211;-76
2023/08/23 03:15:42;;;;;;;2.13;1.60;;;25.20;93.90;;;;;;5074703;28;20172;-77
2023/08/23 03:18:08;;;;;;;3.60;1.50;;;25.20;93.80;;;;;;5074340;28;20348;-77
2023/08/23 03:20:33;;;;;;;1.60;1.50;;;25.20;93.80;;;;;;5074585;28;20176;-77
2023/08/23 03:23:00;;;;;;;1.50;1.30;;;25.20;93.70;;;;;;5073580;28;20187;-77
2023/08/23 03:25:26;;;;;;;3.07;1.70;;;25.20;93.80;;;;;;5072776;28;20187;-77
2023/08/23 03:27:54;;;;;;;1.47;1.37;;;25.10;93.70;;;;;;5071620;28;20183;-76
2023/08/23 03:30:20;;;;;;;2.63;1.60;;;25.10;93.80;;;;;;5072518;28;20231;-76
2023/08/23 03:32:46;;;;;;;1.70;1.40;;;25.10;93.80;;;;;;5072816;28;20210;-77
2023/08/23 03:35:13;;;;;;;3.10;1.50;;;25.10;93.80;;;;;;5070319;28;20269;-77
2023/08/23 03:37:39;;;;;;;2.07;1.60;;;25.10;93.70;;;;;;5070379;28;20171;-77
2023/08/23 03:40:05;;;;;;;1.77;1.40;;;25.10;93.70;;;;;;5070041;28;20191;-77
2023/08/23 03:42:31;;;;;;;2.03;1.30;;;25.10;93.70;;;;;;5071877;28;20179;-77
2023/08/23 03:44:57;;;;;;;3.60;1.53;;;25.10;93.80;;;;;;5070010;28;20202;-76
2023/08/23 03:47:22;;;;;;;2.13;1.60;;;25.00;93.70;;;;;;5059985;28;20191;-77
2023/08/23 03:49:48;;;;;;;1.60;1.43;;;25.10;93.80;;;;;;5051984;28;20208;-77
2023/08/23 03:52:14;;;;;;;1.87;1.60;;;25.00;93.70;;;;;;5052073;28;20183;-77
2023/08/23 03:54:40;;;;;;;2.47;1.60;;;25.00;93.70;;;;;;5053057;28;20265;-76
2023/08/23 03:57:06;;;;;;;1.77;1.60;;;25.10;93.70;;;;;;5055090;28;20556;-76
2023/08/23 03:59:32;;;;;;;3.60;1.43;;;25.00;93.70;;;;;;5055458;28;20744;-76
2023/08/23 04:01:57;;;;;;;3.10;1.50;;;25.00;93.60;;;;;;5055244;28;20172;-77
2023/08/23 04:04:23;;;;;;;2.83;1.60;;;25.00;93.60;;;;;;5054784;28;20199;-76
2023/08/23 04:06:49;;;;;;;3.30;1.50;;;25.00;93.60;;;;;;5054658;28;20253;-77
2023/08/23 04:09:15;;;;;;;2.90;1.63;;;25.00;93.60;;;;;;5054750;28;20214;-77
2023/08/23 04:11:41;;;;;;;1.90;1.70;;;25.00;93.60;;;;;;5055387;28;20263;-77
2023/08/23 04:14:06;;;;;;;2.73;1.80;;;25.00;93.60;;;;;;5054636;28;20165;-77
2023/08/23 04:16:32;;;;;;;3.00;1.43;;;25.00;93.60;;;;;;5055219;28;20184;-77
2023/08/23 04:18:58;;;;;;;3.57;1.60;;;24.90;93.80;;;;;;5054646;28;20296;-77
2023/08/23 04:21:26;;;;;;;1.70;1.50;;;24.90;93.80;;;;;;5056290;28;20597;-76
2023/08/23 04:23:53;;;;;;;3.33;1.70;;;24.90;93.80;;;;;;5056577;28;20171;-77
2023/08/23 04:26:19;;;;;;;1.70;1.60;;;24.90;93.80;;;;;;5054614;28;20168;-77
2023/08/23 04:28:46;;;;;;;2.10;1.70;;;24.90;93.80;;;;;;5051836;28;20183;-76
2023/08/23 04:31:12;;;;;;;2.80;1.50;;;24.90;93.90;;;;;;5051418;28;20215;-76
2023/08/23 04:33:38;;;;;;;2.70;1.63;;;24.90;93.90;;;;;;5049919;28;20172;-77
2023/08/23 04:36:04;;;;;;;5.97;1.60;;;24.90;94.00;;;;;;5052919;28;20175;-77
2023/08/23 04:38:30;;;;;;;4.63;1.73;;;24.90;94.00;;;;;;5051700;28;20285;-77
2023/08/23 04:41:00;;;;;;;2.80;1.70;;;24.90;94.10;;;;;;5052390;28;20636;-77
2023/08/23 04:43:26;;;;;;;2.47;1.53;;;24.90;94.10;;;;;;5051340;28;20172;-77
2023/08/23 04:45:54;;;;;;;3.80;1.60;;;24.80;94.10;;;;;;5051284;28;20225;-76
2023/08/23 04:48:20;;;;;;;3.67;1.83;;;24.90;94.10;;;;;;5050597;28;20281;-76
2023/08/23 04:50:51;;;;;;;1.60;1.30;;;24.90;94.00;;;;;;5052858;28;20365;-77
2023/08/23 04:53:17;;;;;;;2.47;1.60;;;24.80;94.00;;;;;;5053324;28;20207;-77
2023/08/23 04:55:43;;;;;;;2.73;1.60;;;24.80;94.00;;;;;;5050840;28;20208;-76
2023/08/23 04:58:09;;;;;;;2.07;1.53;;;24.80;94.00;;;;;;5048301;28;20177;-77
2023/08/23 05:00:35;;;;;;;3.23;1.80;;;24.80;93.90;;;;;;5052453;23;20284;1
2023/08/23 05:03:01;;;;;;;3.60;1.60;;;24.80;93.90;;;;;;5051523;28;20197;1
2023/08/23 05:05:27;;;;;;;3.63;1.93;;;24.70;93.80;;;;;;5028871;28;20204;1
2023/08/23 05:07:56;;;;;;;1.70;1.60;;;24.70;93.90;;;;;;5041969;28;20635;1
2023/08/23 05:10:22;;;;;;;3.63;1.73;;;24.60;93.80;;;;;;5038757;28;20259;1
2023/08/23 05:12:47;;;;;;;3.20;2.00;;;24.60;93.80;;;;;;5017478;28;20169;1
2023/08/23 05:15:13;;;;;;;2.50;1.80;;;24.60;93.90;;;;;;5041101;28;20193;1
2023/08/23 05:17:39;;;;;;;2.40;1.50;;;24.60;93.60;;;;;;5017183;28;20180;0
2023/08/23 05:20:06;;;;;;;3.20;1.80;;;24.60;93.50;;;;;;5020476;28;21565;0
2023/08/23 05:22:32;;;;;;;2.80;1.70;;;24.60;93.40;;;;;;5054024;28;20246;0
2023/08/23 05:24:57;;;;;;;3.60;1.83;;;24.60;93.30;;;;;;5053137;28;20185;0
2023/08/23 05:27:32;;;;;;;5.73;1.90;;;24.60;93.30;;;;;;5022487;28;20177;0
2023/08/23 05:30:00;;;;;;;2.73;1.93;;;24.60;93.10;;;;;;5028326;28;20239;0
2023/08/23 05:32:26;;;;;;;2.97;2.10;;;24.70;92.80;;;;;;5033237;28;20587;0
2023/08/23 05:34:52;;;;;;;2.90;1.97;;;24.80;92.50;;;;;;5035603;28;20195;0
2023/08/23 05:37:19;;;;;;;2.77;1.80;;;24.90;91.90;;;;;;5022218;28;20305;0
2023/08/23 05:39:45;;;;;;;3.53;1.80;;;24.80;91.70;;;;;;5036845;28;20181;0
2023/08/23 05:42:11;;;;;;;3.50;1.87;;;24.80;91.80;;;;;;5023169;28;20182;0
2023/08/23 05:44:36;;;;;;;2.00;1.70;;;24.70;91.80;;;;;;5020725;28;20185;0
2023/08/23 05:47:02;;;;;;;3.57;1.97;;;24.60;91.80;;;;;;5034784;28;20180;0
2023/08/23 05:49:28;;;;;;;3.73;1.90;;;24.60;91.90;;;;;;5018799;28;20211;0
2023/08/23 05:51:54;;;;;;;3.43;1.90;;;24.60;91.90;;;;;;5019082;28;20169;0
2023/08/23 05:54:20;;;;;;;3.30;2.10;;;24.50;91.90;;;;;;5034239;28;20173;0
2023/08/23 05:56:45;;;;;;;3.17;1.77;;;24.50;91.90;;;;;;5018850;28;20474;0
2023/08/23 05:59:11;;;;;;;3.83;2.13;;;24.50;91.90;;;;;;5033743;28;20528;0
2023/08/23 06:01:38;;;;;;;2.67;1.90;;;24.50;91.80;;;;;;5035041;22;20467;-76
2023/08/23 06:04:04;;;;;;;2.93;2.20;;;24.50;91.80;;;;;;5040349;28;20455;-76
2023/08/23 06:06:30;;;;;;;4.10;2.00;;;24.50;91.80;;;;;;5038380;28;20184;-75
2023/08/23 06:08:56;;;;;;;3.00;1.97;;;24.60;91.80;;;;;;5056720;28;20168;-75
2023/08/23 06:11:21;;;;;;;3.50;2.10;;;24.60;91.80;;;;;;5059247;28;20348;-75
2023/08/23 06:14:24;;;;;;;1.70;1.50;;;24.60;91.80;;;;;;5058062;28;20483;-85
2023/08/23 06:23:36;;;;;;;3.20;2.00;;;24.70;91.40;;;;;;5052572;22;20187;2
2023/08/23 06:26:03;;;;;;;2.83;1.87;;;24.70;91.30;;;;;;5055420;28;20184;2
2023/08/23 06:28:29;;;;;;;3.50;2.00;;;24.70;91.30;;;;;;5053654;28;20184;2
2023/08/23 06:30:57;;;;;;;2.93;2.00;;;24.80;91.40;;;;;;5070308;28;20723;2
2023/08/23 06:33:23;;;;;;;2.93;1.90;;;24.80;91.30;;;;;;5055538;28;20225;2
2023/08/23 06:35:49;;;;;;;3.50;1.80;;;24.80;91.20;;;;;;5054940;28;20600;2
2023/08/23 06:38:15;;;;;;;2.10;1.90;;;24.80;91.20;;;;;;5045585;28;20173;2
2023/08/23 06:40:42;;;;;;;1.70;1.60;;;24.80;91.20;;;;;;5041223;28;20175;2
2023/08/23 06:43:10;;;;;;;3.07;1.90;;;24.80;91.20;;;;;;5041929;28;20435;2
2023/08/23 06:45:35;;;;;;;2.17;1.60;;;24.80;91.20;;;;;;5042940;28;20364;2
2023/08/23 06:48:01;;;;;;;2.20;1.80;;;24.80;91.10;;;;;;5044933;28;20348;2
2023/08/23 06:50:27;;;;;;;2.70;1.80;;;24.90;91.10;;;;;;5044065;28;20211;2
2023/08/23 06:52:52;;;;;;;2.43;1.80;;;24.90;91.10;;;;;;5058725;28;20521;2
2023/08/23 06:55:19;;;;;;;2.30;1.70;;;24.90;91.10;;;;;;5043261;28;20502;2
2023/08/23 06:57:46;;;;;;;3.20;2.00;;;24.90;91.00;;;;;;5046500;28;20176;2
2023/08/23 07:00:12;;;;;;;2.83;1.70;;;24.90;91.00;;;;;;5047061;28;20185;2
2023/08/23 07:02:38;;;;;;;2.27;1.70;;;24.90;91.00;;;;;;5046222;28;20655;2
2023/08/23 07:05:04;;;;;;;2.43;1.63;;;24.90;91.00;;;;;;5047136;28;20255;2
2023/08/23 07:07:30;;;;;;;3.47;1.70;;;25.00;90.90;;;;;;5043716;28;20245;2
2023/08/23 07:09:56;;;;;;;1.97;1.63;;;25.00;90.90;;;;;;5045456;28;20455;2
2023/08/23 07:12:21;;;;;;;2.33;1.60;;;25.00;90.90;;;;;;5060429;28;20235;2
2023/08/23 07:14:49;;;;;;;2.33;1.80;;;25.10;90.80;;;;;;5044679;28;20203;2
2023/08/23 07:17:15;;;;;;;2.03;1.70;;;25.10;90.70;;;;;;5044255;28;20518;2
2023/08/23 07:19:41;;;;;;;2.83;1.80;;;25.10;90.60;;;;;;5044047;28;20214;2
2023/08/23 07:22:07;;;;;;;2.17;1.60;;;25.20;90.50;;;;;;5044393;28;20576;0
2023/08/23 07:24:32;;;;;;;2.40;1.60;;;25.20;90.50;;;;;;5044776;28;20312;0
2023/08/23 07:26:58;;;;;;;2.17;1.70;;;25.30;90.20;;;;;;5043609;28;20200;0
2023/08/23 07:29:24;;;;;;;4.27;1.77;;;25.40;90.20;;;;;;5042041;28;20246;0
2023/08/23 07:31:50;;;;;;;2.77;1.87;;;25.40;89.90;;;;;;5048791;28;20203;0
2023/08/23 07:34:16;;;;;;;2.03;1.80;;;25.40;89.60;;;;;;5047405;28;20219;0
2023/08/23 07:36:42;;;;;;;2.20;1.80;;;25.50;89.40;;;;;;5048711;28;20237;0
2023/08/23 07:39:08;;;;;;;1.83;1.43;;;25.50;89.30;;;;;;5047059;28;20169;0
2023/08/23 07:41:34;;;;;;;2.10;1.80;;;25.60;89.00;;;;;;5048187;28;20195;0
2023/08/23 07:44:00;;;;;;;2.07;1.50;;;25.70;88.20;;;;;;5065935;28;20700;0
2023/08/23 07:46:25;;;;;;;1.93;1.70;;;25.80;87.70;;;;;;5048736;28;20368;0
2023/08/23 07:48:51;;;;;;;2.87;1.80;;;26.00;87.10;;;;;;5065170;28;20419;0
2023/08/23 07:51:17;;;;;;;2.77;1.70;;;26.20;85.90;;;;;;5049536;28;20236;0
2023/08/23 07:53:43;;;;;;;2.67;1.85;;;26.40;84.70;;;;;;5065944;28;20202;0
2023/08/23 07:56:10;;;;;;;1.92;1.50;;;26.70;83.00;;;;;;5048434;28;20315;0
2023/08/23 07:58:38;;;;;;;3.03;1.60;;;26.90;81.30;;;;;;5050444;28;20176;0
2023/08/23 08:01:05;;;;;;;2.20;1.70;;;27.00;80.00;;;;;;5048528;28;20173;0
2023/08/23 08:03:31;;;;;;;1.50;1.40;;;27.10;79.10;;;;;;5049232;28;20545;0
2023/08/23 08:05:56;;;;;;;2.45;1.60;;;27.20;78.30;;;;;;5048292;28;20164;0
2023/08/23 08:08:22;;;;;;;2.05;1.70;;;27.30;77.70;;;;;;5047748;28;20175;0
2023/08/23 08:10:51;;;;;;;1.42;1.33;;;27.50;77.00;;;;;;5047615;28;20284;0
2023/08/23 08:13:16;;;;;;;1.90;1.65;;;27.60;76.30;;;;;;5048035;28;20233;-1
2023/08/23 08:15:42;;;;;;;2.45;1.77;;;27.70;75.40;;;;;;5047249;28;20172;0
2023/08/23 08:18:08;;;;;;;1.52;1.38;;;27.90;74.80;;;;;;5050680;28;20543;0
2023/08/23 08:20:34;;;;;;;2.05;1.85;;;28.10;73.90;;;;;;5050279;28;20202;0
2023/08/23 08:23:00;;;;;;;1.80;1.60;;;28.20;72.80;;;;;;5048395;28;20226;0
2023/08/23 08:25:26;;;;;;;1.95;1.75;;;28.40;72.00;;;;;;5046744;28;20224;0
2023/08/23 08:27:52;;;;;;;2.30;1.63;;;28.50;71.00;;;;;;5046197;28;20168;-1
2023/08/23 08:30:18;;;;;;;2.13;1.63;;;28.70;70.10;;;;;;5048303;28;20481;-1
2023/08/23 08:32:44;;;;;;;1.98;1.75;;;28.90;69.50;;;;;;5047464;28;20237;-1
2023/08/23 08:35:10;;;;;;;2.65;1.60;;;28.90;68.70;;;;;;5047611;28;20168;-1
2023/08/23 08:37:41;;;;;;;4.10;1.60;;;29.00;68.20;;;;;;5049666;28;20173;-1
2023/08/23 08:40:07;;;;;;;1.60;1.50;;;29.20;67.80;;;;;;5056746;28;20762;-1
2023/08/23 08:42:33;;;;;;;1.75;1.60;;;29.20;67.30;;;;;;5055980;28;20168;0
2023/08/23 08:44:59;;;;;;;1.58;1.48;;;29.40;66.70;;;;;;5056578;28;20460;-1
2023/08/23 08:47:28;;;;;;;1.92;1.70;;;29.50;66.10;;;;;;5057084;28;20172;-1
2023/08/23 08:49:55;;;;;;;2.10;1.70;;;29.70;65.60;;;;;;5057692;28;20746;-1
2023/08/23 08:52:24;;;;;;;2.00;1.40;;;29.80;64.90;;;;;;5056845;28;20259;-1
2023/08/23 08:54:53;;;;;;;1.50;1.40;;;29.90;64.40;;;;;;5056621;28;20183;-1
2023/08/23 08:57:27;;;;;;;1.75;1.40;;;30.00;63.90;;;;;;5057264;28;20179;-1
2023/08/23 08:59:55;;;;;;;2.50;1.50;;;30.00;63.70;;;;;;5072982;28;20304;-1
2023/08/23 09:02:23;;;;;;;1.60;1.50;;;30.10;63.30;;;;;;5055906;28;20255;-1
2023/08/23 09:04:51;;;;;;;2.03;1.60;;;30.20;63.10;;;;;;5046910;28;20310;-2
2023/08/23 09:07:16;;;;;;;1.60;1.50;;;30.10;62.60;;;;;;5044644;28;20237;-2
2023/08/23 09:09:45;;;;;;;1.58;1.42;;;30.20;62.40;;;;;;5045055;28;20387;-2
2023/08/23 09:12:11;;;;;;;1.80;1.50;;;30.30;62.20;;;;;;5046955;28;20237;-2
2023/08/23 09:14:41;;;;;;;1.60;1.50;;;30.30;61.80;;;;;;5046738;28;20204;-2
2023/08/23 09:17:07;;;;;;;1.60;1.50;;;30.40;61.80;;;;;;5043803;28;20238;-2
2023/08/23 09:19:35;;;;;;;1.60;1.50;;;30.40;61.60;;;;;;5045186;28;20257;-2
2023/08/23 09:22:03;;;;;;;1.60;1.50;;;30.50;61.30;;;;;;5046607;28;20181;-2
2023/08/23 09:24:29;;;;;;;2.05;1.83;;;30.50;61.20;;;;;;5048434;28;20230;-2
2023/08/23 09:26:55;;;;;;;1.65;1.55;;;30.60;61.00;;;;;;5045458;28;20340;0
2023/08/23 09:29:24;;;;;;;1.60;1.50;;;30.50;61.10;;;;;;5045628;28;20172;0
2023/08/23 09:31:50;;;;;;;1.55;1.45;;;30.30;61.40;;;;;;5043570;28;20164;-1
2023/08/23 09:34:16;;;;;;;1.60;1.50;;;30.20;61.80;;;;;;5047368;28;20404;-1
2023/08/23 09:36:42;;;;;;;1.58;1.48;;;30.10;62.20;;;;;;5047468;28;20160;-1
2023/08/23 09:39:10;;;;;;;1.77;1.50;;;30.00;62.50;;;;;;5046753;28;20176;-1
2023/08/23 09:41:40;;;;;;;1.73;1.42;;;29.80;63.20;;;;;;5048122;28;20169;-1
2023/08/23 09:44:07;;;;;;;1.67;1.58;;;29.70;63.80;;;;;;5061329;28;20172;-1
2023/08/23 09:46:35;;;;;;;2.00;1.42;;;29.60;64.30;;;;;;5040861;28;20192;-1
2023/08/23 09:49:05;;;;;;;1.63;1.52;;;29.70;64.50;;;;;;5044633;28;20173;-1
2023/08/23 09:51:36;;;;;;;1.40;1.30;;;29.50;65.10;;;;;;5045000;28;20344;-1
2023/08/23 09:54:13;;;;;;;1.98;1.60;;;29.40;65.50;;;;;;5045820;28;20465;-1
2023/08/23 09:56:43;;;;;;;1.98;1.50;;;29.40;66.20;;;;;;5042831;28;20183;-1
2023/08/23 09:59:12;;;;;;;1.75;1.38;;;29.40;66.30;;;;;;5063998;28;20195;-1
2023/08/23 10:01:38;;;;;;;1.60;1.50;;;29.30;66.80;;;;;;5054490;28;20195;-1
2023/08/23 10:04:06;;;;;;;1.77;1.60;;;29.30;67.00;;;;;;5055035;28;20188;-1
2023/08/23 10:06:33;;;;;;;1.60;1.40;;;29.30;67.50;;;;;;5053624;28;20553;-1
2023/08/23 10:08:59;;;;;;;1.65;1.50;;;29.20;67.70;;;;;;5047282;28;20465;-1
2023/08/23 10:11:28;;;;;;;2.15;1.45;;;29.20;68.10;;;;;;5059810;28;20231;-1
2023/08/23 10:13:56;;;;;;;1.60;1.50;;;29.10;68.50;;;;;;5062902;28;20184;-1
2023/08/23 10:16:25;;;;;;;1.52;1.42;;;29.20;68.80;;;;;;5046915;28;20185;-1
2023/08/23 10:18:52;;;;;;;1.50;1.25;;;29.20;68.90;;;;;;5045237;28;20294;-1
2023/08/23 10:21:17;;;;;;;1.50;1.40;;;29.30;68.60;;;;;;5048940;28;20235;-1
2023/08/23 10:23:44;;;;;;;1.58;1.48;;;29.30;68.70;;;;;;5036929;28;20671;-1
2023/08/23 10:26:20;;;;;;;1.40;1.30;;;29.30;68.90;;;;;;5040259;28;20247;-1
2023/08/23 10:28:53;;;;;;;1.70;1.48;;;29.20;69.20;;;;;;5038770;28;20172;-1
2023/08/23 10:31:25;;;;;;;1.50;1.40;;;29.30;69.30;;;;;;5043760;28;20412;0
2023/08/23 10:33:58;;;;;;;1.50;1.40;;;29.30;69.30;;;;;;5044797;28;20180;0
2023/08/23 10:36:29;;;;;;;1.35;1.25;;;29.30;69.40;;;;;;5037116;28;20440;-9
2023/08/23 10:38:56;;;;;;;1.40;1.30;;;29.40;69.60;;;;;;5045707;28;20176;0
2023/08/23 10:41:23;;;;;;;1.38;1.27;;;29.30;69.60;;;;;;5043259;28;20617;0
2023/08/23 10:43:49;;;;;;;1.55;1.45;;;29.30;70.10;;;;;;5046423;28;20330;0
2023/08/23 10:46:19;;;;;;;1.50;1.40;;;29.30;70.20;;;;;;5046017;28;20337;0
2023/08/23 10:48:46;;;;;;;1.60;1.42;;;29.30;70.60;;;;;;5047034;28;20184;0
2023/08/23 10:51:13;;;;;;;1.67;1.58;;;29.30;70.70;;;;;;5043730;28;20368;-1
2023/08/23 10:53:40;;;;;;;2.10;1.42;;;29.30;70.90;;;;;;5044840;28;20327;-1
2023/08/23 10:56:07;;;;;;;1.60;1.50;;;29.30;71.30;;;;;;5043490;28;20180;-1
2023/08/23 10:58:33;;;;;;;1.67;1.30;;;29.20;71.50;;;;;;5049245;28;20180;-1
2023/08/23 11:00:59;;;;;;;1.40;1.30;;;29.20;71.80;;;;;;5033096;28;20589;-1
2023/08/23 11:03:31;;;;;;;1.95;1.42;;;29.20;72.20;;;;;;5057245;28;20188;-1
2023/08/23 11:05:57;;;;;;;1.60;1.50;;;29.10;72.20;;;;;;5046277;28;20172;-1
2023/08/23 11:08:23;;;;;;;1.50;1.30;;;29.10;72.50;;;;;;5032955;28;20173;-1
2023/08/23 11:10:49;;;;;;;1.50;1.38;;;29.10;72.80;;;;;;5040435;28;20320;-1
2023/08/23 11:13:15;;;;;;;1.38;1.27;;;29.10;73.00;;;;;;5047861;28;20173;-1
2023/08/23 11:15:44;;;;;;;1.40;1.27;;;29.10;73.20;;;;;;5053114;28;20157;-1
2023/08/23 11:18:14;;;;;;;1.40;1.30;;;29.10;73.50;;;;;;5057409;28;20408;-1
2023/08/23 11:20:40;;;;;;;1.50;1.40;;;29.10;74.00;;;;;;5039239;28;20280;-1
2023/08/23 11:23:06;;;;;;;1.75;1.30;;;29.00;74.30;;;;;;5044254;28;20184;-1
2023/08/23 11:25:32;;;;;;;1.30;1.20;;;29.00;74.50;;;;;;5050883;28;20196;-1
2023/08/23 11:27:58;;;;;;;1.48;1.38;;;29.00;74.80;;;;;;5052739;28;20188;-1
2023/08/23 11:30:24;;;;;;;1.50;1.40;;;29.00;74.90;;;;;;5060305;28;20820;0
2023/08/23 11:32:50;;;;;;;1.20;1.10;;;29.00;75.20;;;;;;5050994;28;20204;0
2023/08/23 11:35:21;;;;;;;1.50;1.38;;;29.00;75.40;;;;;;5050392;28;20464;0
2023/08/23 11:37:54;;;;;;;1.40;1.30;;;29.00;75.70;;;;;;5041825;28;20569;0
2023/08/23 11:40:22;;;;;;;1.60;1.15;;;28.90;76.00;;;;;;5046146;28;20219;0
2023/08/23 11:42:48;;;;;;;1.30;1.20;;;29.00;76.10;;;;;;5039748;28;20181;0
2023/08/23 11:45:14;;;;;;;1.48;1.38;;;29.00;76.40;;;;;;5037757;28;20188;0
2023/08/23 11:47:40;;;;;;;1.50;1.27;;;29.00;76.70;;;;;;5043103;28;20264;0
2023/08/23 11:50:09;;;;;;;1.50;1.40;;;29.00;76.60;;;;;;5043870;28;20211;-1
2023/08/23 11:52:35;;;;;;;1.42;1.33;;;29.00;76.90;;;;;;5042778;28;20179;-1
2023/08/23 11:55:05;;;;;;;1.58;1.48;;;28.90;77.00;;;;;;5036551;28;20181;0
2023/08/23 11:57:34;;;;;;;1.50;1.30;;;29.00;77.20;;;;;;5053171;28;20212;-1
2023/08/23 12:00:00;;;;;;;1.70;1.40;;;28.90;77.40;;;;;;5069631;28;20176;-1
2023/08/23 12:02:26;;;;;;;1.42;1.33;;;28.90;77.60;;;;;;5037261;28;20259;-1
2023/08/23 12:04:52;;;;;;;1.35;1.20;;;28.90;77.90;;;;;;5052650;28;20176;-1
2023/08/23 12:07:18;;;;;;;1.60;1.50;;;28.90;78.00;;;;;;5051955;28;20739;-1
2023/08/23 12:09:44;;;;;;;1.73;1.35;;;29.00;78.60;;;;;;5068152;28;20196;-1
2023/08/23 12:12:12;;;;;;;1.48;1.20;;;29.00;78.30;;;;;;5053104;28;20275;0
2023/08/23 12:14:37;;;;;;;1.40;1.30;;;29.00;78.40;;;;;;5043915;28;20212;-1
2023/08/23 12:17:03;;;;;;;1.30;1.20;;;29.00;78.60;;;;;;5033780;28;20201;-1
2023/08/23 12:19:35;;;;;;;1.30;1.20;;;29.00;78.70;;;;;;5054176;28;20229;0
2023/08/23 12:22:05;;;;;;;1.30;1.20;;;29.00;78.80;;;;;;5049227;28;20176;-1
2023/08/23 12:24:31;;;;;;;1.50;1.38;;;29.00;78.90;;;;;;5048460;28;20454;0
2023/08/23 12:26:58;;;;;;;1.48;1.25;;;29.00;79.10;;;;;;5051776;28;20580;-1
2023/08/23 12:29:24;;;;;;;1.40;1.30;;;29.00;79.30;;;;;;5049031;28;20735;0
2023/08/23 12:31:51;;;;;;;1.50;1.30;;;29.00;79.50;;;;;;5045873;28;20264;-1
2023/08/23 12:34:17;;;;;;;1.95;1.40;;;29.00;79.60;;;;;;5049533;28;20176;-1
2023/08/23 12:36:42;;;;;;;2.00;1.40;;;29.00;79.70;;;;;;5052975;28;20178;-1
2023/08/23 12:39:08;;;;;;;1.40;1.30;;;29.00;80.30;;;;;;5044244;28;20699;0
2023/08/23 12:41:35;;;;;;;2.65;1.30;;;28.90;80.00;;;;;;5055195;28;20554;-1
2023/08/23 12:44:01;;;;;;;1.45;1.35;;;28.90;80.40;;;;;;5056598;28;20680;-1
2023/08/23 12:46:29;;;;;;;1.50;1.40;;;28.90;80.40;;;;;;5054298;28;20276;0
2023/08/23 12:48:55;;;;;;;1.40;1.30;;;29.00;80.50;;;;;;5055731;28;20219;0
2023/08/23 12:51:22;;;;;;;1.40;1.30;;;28.90;80.70;;;;;;5055238;28;20786;0
2023/08/23 12:53:48;;;;;;;1.48;1.38;;;28.90;80.80;;;;;;5054857;28;20156;-1
2023/08/23 12:56:14;;;;;;;1.30;1.20;;;28.90;81.00;;;;;;5055224;28;20175;0
2023/08/23 12:58:40;;;;;;;1.92;1.30;;;28.90;81.00;;;;;;5053636;28;20168;-1
2023/08/23 13:01:12;;;;;;;1.50;1.40;;;28.90;81.20;;;;;;5055981;28;20242;-1
2023/08/23 13:03:37;;;;;;;1.77;1.30;;;29.00;81.40;;;;;;5054301;28;20355;-1